Time;durP1;ratioP1;P1;durP2;ratioP2;P2;SDS_P1;SDS_P2;PMS_P1;PMS_P2;Temp;Humidity;BMP_temperature;BMP_pressure;BME280_temperature;BME280_humidity;BME280_pressure;Samples;Min_cycle;Max_cycle;Signal;HPM_P1;HPM_P2
2023/02/21 02:15:06;;;;;;;65.50;33.17;;;9.90;99.90;;;;;;5077914;28;20155;-91
2023/02/21 02:17:49;;;;;;;60.80;30.38;;;9.80;99.90;;;;;;5034099;28;20072;-92
2023/02/21 02:20:39;;;;;;;63.78;32.20;;;9.90;99.90;;;;;;5076423;28;20472;-91
2023/02/21 02:23:38;;;;;;;61.95;30.98;;;9.80;99.90;;;;;;5076036;28;20044;-92
2023/02/21 02:26:50;;;;;;;70.05;33.22;;;9.80;99.90;;;;;;5059063;28;20037;-93
2023/02/21 02:29:52;;;;;;;67.45;32.42;;;9.80;99.90;;;;;;5032716;28;20051;-91
2023/02/21 02:32:57;;;;;;;75.10;34.17;;;9.90;99.90;;;;;;5060100;28;20055;-91
2023/02/21 02:35:57;;;;;;;71.97;33.97;;;9.80;99.90;;;;;;5060029;28;20024;-91
2023/02/21 02:38:55;;;;;;;69.82;34.17;;;9.80;99.90;;;;;;5056207;28;20090;-91
2023/02/21 02:41:53;;;;;;;69.80;33.42;;;9.80;99.90;;;;;;5065007;28;20024;-91
2023/02/21 02:44:51;;;;;;;74.60;33.35;;;9.80;99.90;;;;;;5078304;28;20020;-91
2023/02/21 02:47:33;;;;;;;76.50;34.47;;;9.80;99.90;;;;;;5037613;28;20062;-91
2023/02/21 02:50:03;;;;;;;81.00;36.70;;;9.80;99.90;;;;;;5059395;28;20154;-90
2023/02/21 02:52:28;;;;;;;81.93;34.58;;;9.80;99.90;;;;;;5064530;28;20084;-92
2023/02/21 02:55:25;;;;;;;81.28;35.38;;;9.80;99.90;;;;;;5069806;28;20021;-91
2023/02/21 02:57:51;;;;;;;78.25;33.78;;;9.80;99.90;;;;;;5063487;28;20024;-91
2023/02/21 03:00:22;;;;;;;84.97;35.08;;;9.80;99.90;;;;;;5042611;28;20031;-91
2023/02/21 03:02:56;;;;;;;71.72;32.75;;;9.80;99.90;;;;;;5076050;28;20132;-91
2023/02/21 03:05:43;;;;;;;78.60;35.33;;;9.80;99.90;;;;;;5058826;28;20021;-91
2023/02/21 03:08:37;;;;;;;69.47;31.60;;;9.80;99.90;;;;;;5059339;28;20032;-91
2023/02/21 03:11:31;;;;;;;;;;;;;;;;;;;;;
2023/02/21 03:14:14;;;;;;;60.78;29.33;;;9.80;99.90;;;;;;5083228;28;20131;-90
2023/02/21 03:16:50;;;;;;;66.45;29.75;;;9.70;99.90;;;;;;5058954;28;20049;-91
2023/02/21 03:19:23;;;;;;;65.10;29.33;;;9.70;99.90;;;;;;5058635;28;20027;-91
2023/02/21 03:21:57;;;;;;;67.03;29.67;;;9.80;99.90;;;;;;5058772;28;20032;-91
2023/02/21 03:24:27;;;;;;;64.93;31.63;;;9.80;99.90;;;;;;5058644;28;20038;-90
2023/02/21 03:27:05;;;;;;;68.60;31.20;;;9.80;99.90;;;;;;5058271;28;20090;-91
2023/02/21 03:29:33;;;;;;;78.13;33.95;;;9.80;99.90;;;;;;5058654;28;20139;-90
2023/02/21 03:34:57;;;;;;;77.28;31.50;;;9.80;99.90;;;;;;5078852;28;20041;-93
2023/02/21 03:37:34;;;;;;;76.13;33.38;;;9.80;99.90;;;;;;5073519;28;20036;-92
2023/02/21 03:40:04;;;;;;;71.70;31.23;;;9.80;99.90;;;;;;5057925;28;20032;-91
2023/02/21 03:42:29;;;;;;;77.03;32.97;;;9.80;99.90;;;;;;5058342;28;20140;-92
2023/02/21 03:44:58;;;;;;;77.55;33.33;;;9.80;99.90;;;;;;5058156;28;20024;-92
2023/02/21 03:47:34;;;;;;;92.72;37.45;;;9.80;99.90;;;;;;5057780;28;20036;-91
2023/02/21 03:50:07;;;;;;;88.13;35.63;;;9.80;99.90;;;;;;5042621;28;20464;-91
2023/02/21 03:52:33;;;;;;;94.38;37.35;;;9.70;99.90;;;;;;5058531;28;20468;-92
2023/02/21 03:55:03;;;;;;;88.55;36.42;;;9.80;99.90;;;;;;5058331;28;20035;-92
2023/02/21 03:57:29;;;;;;;90.88;37.92;;;9.80;99.90;;;;;;5057486;28;20499;-92
2023/02/21 03:59:55;;;;;;;99.22;38.22;;;9.80;99.90;;;;;;5057765;28;20060;-91
2023/02/21 04:02:21;;;;;;;92.22;39.53;;;9.80;99.90;;;;;;5057378;28;20024;-91
2023/02/21 04:04:49;;;;;;;94.30;40.13;;;9.80;99.90;;;;;;5057893;28;20025;-92
2023/02/21 04:07:20;;;;;;;98.78;39.92;;;9.80;99.90;;;;;;5057364;28;20074;-91
2023/02/21 04:09:47;;;;;;;94.68;37.97;;;9.80;99.90;;;;;;5057794;28;20020;-91
2023/02/21 04:12:13;;;;;;;93.85;38.33;;;9.80;99.90;;;;;;5057076;28;20472;-91
2023/02/21 04:14:41;;;;;;;99.30;39.03;;;9.80;99.90;;;;;;5057851;28;20029;-91
2023/02/21 04:17:10;;;;;;;105.95;39.05;;;9.80;99.90;;;;;;5057492;28;20128;-91
2023/02/21 04:19:36;;;;;;;92.43;39.50;;;9.80;99.90;;;;;;5057815;28;20472;-91
2023/02/21 04:22:04;;;;;;;92.88;38.80;;;9.80;99.90;;;;;;5057385;28;20021;-91
2023/02/21 04:24:30;;;;;;;96.20;38.78;;;9.80;99.90;;;;;;5040921;28;20024;-91
2023/02/21 04:26:58;;;;;;;92.30;38.30;;;9.80;99.90;;;;;;5057425;28;20036;-91
2023/02/21 04:29:27;;;;;;;84.43;36.83;;;9.80;99.90;;;;;;5040927;28;20024;-91
2023/02/21 04:31:54;;;;;;;95.30;37.25;;;9.80;99.90;;;;;;5056830;28;20455;-91
2023/02/21 04:34:22;;;;;;;91.85;37.15;;;9.80;99.90;;;;;;5057461;28;20114;-91
2023/02/21 04:36:48;;;;;;;91.80;37.60;;;9.80;99.90;;;;;;5057823;28;20032;-91
2023/02/21 04:39:17;;;;;;;91.68;38.33;;;9.80;99.90;;;;;;5057162;28;20059;-91
2023/02/21 04:41:43;;;;;;;89.47;38.38;;;9.80;99.90;;;;;;5075877;28;20048;-90
2023/02/21 04:44:11;;;;;;;87.97;36.70;;;9.80;99.90;;;;;;5080282;28;20032;-93
2023/02/21 04:46:37;;;;;;;92.15;37.75;;;9.80;99.90;;;;;;5080813;28;20005;-91
2023/02/21 04:49:09;;;;;;;90.90;37.63;;;9.70;99.90;;;;;;5080203;28;20036;-94
2023/02/21 04:51:37;;;;;;;83.40;36.72;;;9.70;99.90;;;;;;5079708;28;20031;-90
2023/02/21 04:54:06;;;;;;;88.13;35.75;;;9.70;99.90;;;;;;5078466;28;20017;-95
2023/02/21 04:56:36;;;;;;;79.32;34.90;;;9.80;99.90;;;;;;5070526;28;20066;-91
2023/02/21 04:59:04;;;;;;;77.45;35.80;;;9.70;99.90;;;;;;5057695;28;20059;-92
2023/02/21 05:01:32;;;;;;;74.78;34.17;;;9.80;99.90;;;;;;5061240;28;20021;-90
2023/02/21 05:04:00;;;;;;;74.95;34.08;;;9.70;99.90;;;;;;5063852;28;20021;-90
2023/02/21 05:06:37;;;;;;;72.88;32.90;;;9.70;99.90;;;;;;5064811;28;20045;-91
2023/02/21 05:09:08;;;;;;;72.03;31.83;;;9.70;99.90;;;;;;5063815;28;20039;-93
2023/02/21 05:11:44;;;;;;;78.07;35.95;;;9.80;99.90;;;;;;5066410;28;20072;-92
2023/02/21 05:14:20;;;;;;;77.45;35.83;;;9.70;99.90;;;;;;5064217;28;20361;-91
2023/02/21 05:16:49;;;;;;;88.38;38.00;;;9.70;99.90;;;;;;5082197;28;20025;-91
2023/02/21 05:19:33;;;;;;;87.63;36.70;;;9.70;99.90;;;;;;5062241;28;20039;-91
2023/02/21 05:22:00;;;;;;;94.15;36.10;;;9.70;99.90;;;;;;5057992;28;20028;-91
2023/02/21 05:24:29;;;;;;;104.22;39.00;;;9.70;99.90;;;;;;5074117;28;20029;-91
2023/02/21 05:26:57;;;;;;;95.43;38.50;;;9.70;99.90;;;;;;5059658;28;20017;-90
2023/02/21 05:29:25;;;;;;;103.78;39.67;;;9.70;99.90;;;;;;5044126;28;20059;-91
2023/02/21 05:31:54;;;;;;;111.40;38.50;;;9.70;99.90;;;;;;5060312;28;20047;-92
2023/02/21 05:34:21;;;;;;;102.05;37.67;;;9.70;99.90;;;;;;5047117;28;20029;-92
2023/02/21 05:36:47;;;;;;;112.35;40.33;;;9.70;99.90;;;;;;5062273;28;20025;-92
2023/02/21 05:39:12;;;;;;;95.45;36.88;;;9.70;99.90;;;;;;5065852;28;20029;-92
2023/02/21 05:41:52;;;;;;;85.55;35.42;;;9.70;99.90;;;;;;5060205;28;20028;-92
2023/02/21 05:44:20;;;;;;;86.32;35.95;;;9.70;99.90;;;;;;5066851;28;20055;-92
2023/02/21 05:46:48;;;;;;;91.55;36.10;;;9.80;99.90;;;;;;5060651;28;20036;-92
2023/02/21 05:49:20;;;;;;;84.85;35.28;;;9.80;99.90;;;;;;5059932;28;20040;-92
2023/02/21 05:51:45;;;;;;;94.63;35.78;;;9.80;99.90;;;;;;5059677;28;20033;-91
2023/02/21 05:54:17;;;;;;;104.72;38.88;;;9.80;99.90;;;;;;5060759;28;20051;-92
2023/02/21 05:56:50;;;;;;;91.22;35.72;;;9.80;99.90;;;;;;5061979;28;20029;-92
2023/02/21 05:59:18;;;;;;;119.85;39.72;;;9.80;99.90;;;;;;5060023;28;20032;-92
2023/02/21 06:01:47;;;;;;;102.97;38.25;;;9.80;99.90;;;;;;5059716;28;20051;-92
2023/02/21 06:04:22;;;;;;;101.10;38.38;;;9.80;99.90;;;;;;5059807;28;20123;-92
2023/02/21 06:06:55;;;;;;;108.55;39.75;;;9.80;99.90;;;;;;5060410;28;20067;-92
2023/02/21 06:09:21;;;;;;;109.18;38.97;;;9.80;99.90;;;;;;5059542;28;20025;-91
2023/02/21 06:11:47;;;;;;;105.32;39.20;;;9.80;99.90;;;;;;5062062;28;20020;-90
2023/02/21 06:14:21;;;;;;;104.03;38.35;;;9.70;99.90;;;;;;5074955;28;20095;-92
2023/02/21 06:16:47;;;;;;;103.80;38.90;;;9.80;99.90;;;;;;5059831;28;20460;-91
2023/02/21 06:19:15;;;;;;;97.72;37.65;;;9.70;99.90;;;;;;5059632;28;20050;-92
2023/02/21 06:21:41;;;;;;;95.28;38.25;;;9.70;99.90;;;;;;5059958;28;20025;-91
2023/02/21 06:24:10;;;;;;;103.82;37.03;;;9.70;99.90;;;;;;5060394;28;20021;-91
2023/02/21 06:26:36;;;;;;;111.38;38.92;;;9.70;99.90;;;;;;5044537;28;20036;-91
2023/02/21 06:29:09;;;;;;;102.40;38.53;;;9.70;99.90;;;;;;5059874;28;20027;-92
2023/02/21 06:31:35;;;;;;;91.68;36.05;;;9.70;99.90;;;;;;5059944;28;20098;-91
2023/02/21 06:34:01;;;;;;;90.13;34.75;;;9.70;99.90;;;;;;5060127;28;20510;-91
2023/02/21 06:36:38;;;;;;;97.75;39.00;;;9.70;99.90;;;;;;5059189;28;20029;-92
2023/02/21 06:39:06;;;;;;;92.53;37.42;;;9.70;99.90;;;;;;5059339;28;20078;-91
2023/02/21 06:41:34;;;;;;;96.13;36.05;;;9.70;99.90;;;;;;5059427;28;20459;-90
2023/02/21 06:44:00;;;;;;;88.90;36.38;;;9.70;99.90;;;;;;5059469;28;20029;-92
2023/02/21 06:46:31;;;;;;;92.60;35.92;;;9.70;99.90;;;;;;5059673;28;20029;-92
2023/02/21 06:49:06;;;;;;;89.03;34.78;;;9.70;99.90;;;;;;5042853;28;20473;-91
2023/02/21 06:51:42;;;;;;;87.85;34.92;;;9.70;99.90;;;;;;5059178;28;20461;-92
2023/02/21 06:54:15;;;;;;;103.50;36.42;;;9.60;99.90;;;;;;5043645;28;20484;-92
2023/02/21 06:56:43;;;;;;;79.45;33.15;;;9.70;99.90;;;;;;5059144;28;20028;-92
2023/02/21 06:59:14;;;;;;;100.82;36.75;;;9.60;99.90;;;;;;5058931;28;20035;-92
2023/02/21 07:01:40;;;;;;;96.03;35.30;;;9.70;99.90;;;;;;5042651;28;20384;-92
2023/02/21 07:04:05;;;;;;;91.95;34.78;;;9.70;99.90;;;;;;5058898;28;20024;-92
2023/02/21 07:06:32;;;;;;;86.53;33.03;;;9.60;99.90;;;;;;5058490;28;20054;-90
2023/02/21 07:09:01;;;;;;;101.10;34.67;;;9.70;99.90;;;;;;5058750;28;20017;-92
2023/02/21 07:11:36;;;;;;;96.68;35.97;;;9.60;99.90;;;;;;5059136;28;20020;-92
2023/02/21 07:14:03;;;;;;;97.57;35.22;;;9.70;99.90;;;;;;5058938;28;20021;-92
2023/02/21 07:16:29;;;;;;;107.93;35.78;;;9.70;99.90;;;;;;5054913;28;20037;-91
2023/02/21 07:19:04;;;;;;;113.03;36.22;;;9.70;99.90;;;;;;5054735;28;20036;-90
2023/02/21 07:21:29;;;;;;;115.05;35.60;;;9.70;99.90;;;;;;5039018;28;20013;-91
2023/02/21 07:24:09;;;;;;;95.25;36.45;;;9.60;99.90;;;;;;5038673;28;20025;-91
2023/02/21 07:26:36;;;;;;;99.03;35.47;;;9.60;99.90;;;;;;5038385;28;20028;-91
2023/02/21 07:29:02;;;;;;;117.22;38.05;;;9.60;99.90;;;;;;5038374;28;20071;-90
2023/02/21 07:31:30;;;;;;;103.53;35.88;;;9.60;99.90;;;;;;5038204;28;20044;-90
2023/02/21 07:34:04;;;;;;;112.32;35.42;;;9.60;99.90;;;;;;5071466;28;20047;-91
2023/02/21 07:36:31;;;;;;;102.28;35.85;;;9.60;99.90;;;;;;5038283;28;20029;-91
2023/02/21 07:38:59;;;;;;;101.43;34.85;;;9.60;99.90;;;;;;5071823;28;20025;-91
2023/02/21 07:41:29;;;;;;;106.75;34.75;;;9.60;99.90;;;;;;5038445;28;20025;-93
2023/02/21 07:43:58;;;;;;;113.57;37.05;;;9.60;99.90;;;;;;5056522;28;20025;-93
2023/02/21 07:46:34;;;;;;;119.43;36.88;;;9.60;99.90;;;;;;5071457;28;20465;-92
2023/02/21 07:49:02;;;;;;;94.05;34.13;;;9.60;99.90;;;;;;5037720;28;20460;-92
2023/02/21 07:51:29;;;;;;;125.00;36.92;;;9.60;99.90;;;;;;5038075;28;20056;-92
2023/02/21 07:53:57;;;;;;;115.63;38.30;;;9.60;99.90;;;;;;5038221;28;20013;-92
2023/02/21 07:56:26;;;;;;;104.82;34.13;;;9.60;99.90;;;;;;5070921;28;20037;-93
2023/02/21 07:58:54;;;;;;;103.50;34.47;;;9.60;99.90;;;;;;5054887;28;20503;-93
2023/02/21 08:01:27;;;;;;;90.10;33.35;;;9.60;99.90;;;;;;5071444;28;20043;-92
2023/02/21 08:03:56;;;;;;;113.05;33.60;;;9.60;99.90;;;;;;5038499;28;20102;-92
2023/02/21 08:06:22;;;;;;;108.88;35.15;;;9.60;99.90;;;;;;5074897;28;20027;-92
2023/02/21 08:08:50;;;;;;;119.03;35.47;;;9.60;99.90;;;;;;5071736;28;20024;-92
2023/02/21 08:11:16;;;;;;;127.07;37.20;;;9.60;99.90;;;;;;5059528;28;20005;-92
2023/02/21 08:13:44;;;;;;;126.82;36.70;;;9.60;99.90;;;;;;5092309;28;20028;-93
2023/02/21 08:16:10;;;;;;;117.38;35.53;;;9.60;99.90;;;;;;5055702;28;20101;-92
2023/02/21 08:18:36;;;;;;;109.55;34.63;;;9.60;99.90;;;;;;5091347;28;20021;-93
2023/02/21 08:21:03;;;;;;;117.82;35.15;;;9.60;99.90;;;;;;5047445;28;20029;-93
2023/02/21 08:23:28;;;;;;;108.90;35.10;;;9.50;99.90;;;;;;5071210;28;20383;-92
2023/02/21 08:25:57;;;;;;;114.22;34.15;;;9.50;99.90;;;;;;5037745;28;20025;-92
2023/02/21 08:28:27;;;;;;;95.18;33.10;;;9.50;99.90;;;;;;5054351;28;20053;-92
2023/02/21 08:30:53;;;;;;;102.00;34.53;;;9.50;99.90;;;;;;5070971;28;20029;-92
2023/02/21 08:33:22;;;;;;;115.68;34.53;;;9.50;99.90;;;;;;5050807;28;20063;-92
2023/02/21 08:35:53;;;;;;;103.28;33.90;;;9.50;99.90;;;;;;5035216;28;20104;-91
2023/02/21 08:38:21;;;;;;;105.93;33.22;;;9.50;99.90;;;;;;5068002;28;20034;-92
2023/02/21 08:40:50;;;;;;;111.25;34.30;;;9.60;99.90;;;;;;5069872;28;20022;-92
2023/02/21 08:43:16;;;;;;;104.22;33.20;;;9.50;99.90;;;;;;5044846;28;20022;-92
2023/02/21 08:45:41;;;;;;;107.80;33.65;;;9.50;99.90;;;;;;5032872;28;20046;-92
2023/02/21 08:48:26;;;;;;;;;;;;;;;;;;;;;
2023/02/21 08:50:52;;;;;;;100.03;31.63;;;9.50;99.90;;;;;;5056427;28;20025;-92
2023/02/21 08:53:28;;;;;;;84.43;29.88;;;9.50;99.90;;;;;;5043015;28;20058;-91
2023/02/21 08:55:54;;;;;;;82.85;28.63;;;9.50;99.90;;;;;;5042589;28;20029;-91
2023/02/21 08:58:19;;;;;;;83.40;28.63;;;9.50;99.90;;;;;;5047359;28;20094;-92
2023/02/21 09:00:52;;;;;;;86.30;28.10;;;9.50;99.90;;;;;;5038843;28;20032;-91
2023/02/21 09:03:26;;;;;;;82.32;29.13;;;9.50;99.90;;;;;;5059598;28;20120;-91
2023/02/21 09:05:55;;;;;;;74.22;26.88;;;9.50;99.90;;;;;;5055075;28;20033;-91
2023/02/21 09:08:32;;;;;;;84.05;28.15;;;9.50;99.90;;;;;;5041776;28;20061;-92
2023/02/21 09:10:59;;;;;;;57.28;23.58;;;9.60;99.90;;;;;;5043130;28;20036;-92
2023/02/21 09:13:37;;;;;;;65.97;25.15;;;9.60;99.90;;;;;;5075936;28;20362;-91
2023/02/21 09:16:03;;;;;;;64.53;24.55;;;9.60;99.90;;;;;;5042152;28;20036;-91
2023/02/21 09:18:37;;;;;;;60.65;24.40;;;9.60;99.90;;;;;;5042291;28;20029;-91
2023/02/21 09:21:05;;;;;;;68.15;24.10;;;9.60;99.90;;;;;;5028026;28;20025;-91
2023/02/21 09:23:34;;;;;;;59.72;22.52;;;9.70;99.90;;;;;;5041650;28;20021;-92
2023/02/21 09:26:02;;;;;;;54.70;21.83;;;9.60;99.90;;;;;;5042586;28;20438;-91
2023/02/21 09:28:31;;;;;;;53.45;21.58;;;9.60;99.90;;;;;;5059217;28;20124;-91
2023/02/21 09:30:57;;;;;;;55.50;22.60;;;9.60;99.90;;;;;;5042292;28;20017;-92
2023/02/21 09:33:25;;;;;;;58.42;22.40;;;9.70;99.90;;;;;;5058320;28;20484;-91
2023/02/21 09:35:52;;;;;;;58.50;22.55;;;9.60;99.90;;;;;;5061731;28;20078;-94
2023/02/21 09:38:18;;;;;;;58.85;23.20;;;9.60;99.90;;;;;;5055363;28;20411;-92
2023/02/21 09:41:00;;;;;;;54.90;22.77;;;9.60;99.90;;;;;;5057612;28;20118;-92
2023/02/21 09:43:38;;;;;;;49.35;20.48;;;9.60;99.90;;;;;;5059775;28;20017;-93
2023/02/21 09:46:38;;;;;;;59.35;22.25;;;9.70;99.90;;;;;;5046188;28;20021;-93
2023/02/21 09:49:12;;;;;;;47.08;20.05;;;9.70;99.90;;;;;;5041448;28;20063;-93
2023/02/21 09:51:42;;;;;;;52.80;21.60;;;9.70;99.90;;;;;;5058543;28;20125;-92
2023/02/21 09:54:40;;;;;;;57.90;21.67;;;9.70;99.90;;;;;;5060693;28;20029;-92
2023/02/21 09:57:15;;;;;;;53.78;21.15;;;9.70;99.90;;;;;;5048739;28;20043;-92
2023/02/21 09:59:43;;;;;;;51.83;21.38;;;9.70;99.90;;;;;;5061308;28;20031;-92
2023/02/21 10:02:17;;;;;;;53.50;21.60;;;9.70;99.90;;;;;;5062885;28;20028;-90
2023/02/21 10:05:11;;;;;;;59.92;23.50;;;9.70;99.90;;;;;;5077000;28;20103;-91
2023/02/21 10:07:55;;;;;;;62.53;22.95;;;9.70;99.90;;;;;;5076749;28;20033;-91
2023/02/21 10:10:26;;;;;;;50.80;21.38;;;9.70;99.90;;;;;;5076565;28;20056;-91
2023/02/21 10:12:57;;;;;;;;;;;9.70;99.90;;;;;;5077796;28;20159;-92
2023/02/21 10:15:26;;;;;;;57.10;22.80;;;9.70;99.90;;;;;;5057595;28;20421;-93
2023/02/21 10:18:13;;;;;;;53.35;21.80;;;9.70;99.90;;;;;;5073130;28;20020;-92
2023/02/21 10:20:53;;;;;;;49.33;20.67;;;9.70;99.90;;;;;;5056897;28;20477;-92
2023/02/21 10:23:34;;;;;;;62.13;22.03;;;9.70;99.90;;;;;;5073673;28;20025;-92
2023/02/21 10:26:08;;;;;;;54.10;21.38;;;9.70;99.90;;;;;;5056392;28;20176;-93
2023/02/21 10:28:34;;;;;;;58.38;22.05;;;9.80;99.90;;;;;;5058440;28;20115;-92
2023/02/21 10:31:30;;;;;;;48.80;20.02;;;9.80;99.90;;;;;;5058794;28;20112;-95
2023/02/21 10:34:06;;;;;;;52.95;21.65;;;9.80;99.90;;;;;;5029657;28;20444;-94
2023/02/21 10:36:35;;;;;;;58.33;22.42;;;9.80;99.90;;;;;;5070126;28;20025;-92
2023/02/21 10:39:18;;;;;;;49.83;20.77;;;9.80;99.90;;;;;;5056192;28;20040;-93
2023/02/21 10:41:46;;;;;;;52.10;22.88;;;9.80;99.90;;;;;;5040793;28;20034;-93
2023/02/21 10:44:23;;;;;;;55.10;20.88;;;9.80;99.90;;;;;;5053245;28;20107;-93
2023/02/21 10:47:07;;;;;;;45.95;20.02;;;9.80;99.90;;;;;;5053261;28;20034;-93
2023/02/21 10:49:54;;;;;;;54.83;21.20;;;9.80;99.90;;;;;;5053612;28;20496;-92
2023/02/21 10:52:20;;;;;;;48.35;19.73;;;9.90;99.90;;;;;;5053620;28;20033;-90
2023/02/21 10:55:11;;;;;;;47.55;20.13;;;9.90;99.90;;;;;;5036815;28;20021;-91
2023/02/21 10:57:41;;;;;;;54.20;20.85;;;9.90;99.90;;;;;;5053631;28;20535;-88
2023/02/21 11:00:09;;;;;;;53.85;21.75;;;9.90;99.90;;;;;;5041729;28;20032;-88
2023/02/21 11:02:43;;;;;;;46.67;20.80;;;9.90;99.90;;;;;;5039653;28;20111;-88
2023/02/21 11:05:19;;;;;;;48.60;19.98;;;9.90;99.90;;;;;;5053060;28;20064;-88
2023/02/21 11:08:05;;;;;;;50.50;19.95;;;9.90;99.90;;;;;;5040467;28;20036;-89
2023/02/21 11:10:43;;;;;;;46.22;19.15;;;10.00;99.90;;;;;;5050951;28;20041;-90
2023/02/21 11:13:18;;;;;;;44.45;17.67;;;9.90;99.90;;;;;;5052386;28;20036;-91
2023/02/21 11:15:44;;;;;;;43.78;18.90;;;9.90;99.90;;;;;;5039991;28;20029;-90
2023/02/21 11:18:23;;;;;;;43.25;19.15;;;9.90;99.90;;;;;;5057673;28;20515;-88
2023/02/21 11:20:52;;;;;;;41.53;18.73;;;9.90;99.90;;;;;;5055244;28;20033;-89
2023/02/21 11:23:27;;;;;;;44.58;18.35;;;9.90;99.90;;;;;;5051338;28;20029;-91
2023/02/21 11:26:13;;;;;;;43.40;18.52;;;10.00;99.90;;;;;;5035119;28;20026;-90
2023/02/21 11:28:42;;;;;;;40.40;17.92;;;10.00;99.90;;;;;;5031783;28;20087;-90
2023/02/21 11:31:32;;;;;;;40.67;17.90;;;10.00;99.90;;;;;;5047222;28;20330;-90
2023/02/21 11:34:04;;;;;;;38.97;17.23;;;10.00;99.90;;;;;;5093990;28;20048;-92
2023/02/21 11:36:35;;;;;;;41.70;18.50;;;10.00;99.90;;;;;;5101678;28;20036;-92
2023/02/21 11:39:01;;;;;;;37.47;17.40;;;10.00;99.90;;;;;;5101295;28;20038;-90
2023/02/21 11:41:28;;;;;;;37.97;15.90;;;10.00;99.90;;;;;;5099751;28;20032;-90
2023/02/21 11:43:57;;;;;;;32.55;14.70;;;10.00;99.90;;;;;;5099721;28;20046;-92
2023/02/21 11:46:49;;;;;;;33.08;14.52;;;10.00;99.90;;;;;;5079618;28;20024;-91
2023/02/21 11:49:37;;;;;;;31.92;13.60;;;10.00;99.90;;;;;;5080638;28;20456;-90
2023/02/21 11:52:12;;;;;;;32.30;13.98;;;10.00;99.90;;;;;;5097459;28;20024;-89
2023/02/21 11:54:38;;;;;;;33.15;14.05;;;10.00;99.90;;;;;;5078467;28;20119;-91
2023/02/21 11:57:24;;;;;;;34.10;13.55;;;9.90;99.90;;;;;;5077853;28;20097;-90
2023/02/21 12:00:24;;;;;;;28.70;12.63;;;9.90;99.90;;;;;;5064584;28;20449;-91
2023/02/21 12:03:17;;;;;;;27.35;13.02;;;9.90;99.90;;;;;;5051140;28;20028;-90
2023/02/21 12:05:46;;;;;;;30.30;12.73;;;9.90;99.90;;;;;;5058765;28;20046;-92
2023/02/21 12:08:31;;;;;;;30.70;12.60;;;9.90;99.90;;;;;;5091530;28;20063;-92
2023/02/21 12:11:30;;;;;;;32.30;12.63;;;9.90;99.90;;;;;;5104867;28;20380;-90
2023/02/21 12:14:15;;;;;;;27.55;11.85;;;9.90;99.90;;;;;;5077870;28;20028;-91
2023/02/21 12:17:11;;;;;;;29.00;12.00;;;9.90;99.90;;;;;;5062296;28;20123;-92
2023/02/21 12:19:51;;;;;;;28.20;12.30;;;9.90;99.90;;;;;;5056085;28;20056;-91
2023/02/21 12:22:31;;;;;;;25.15;11.07;;;9.90;99.90;;;;;;5063510;28;20012;-90
2023/02/21 12:25:17;;;;;;;28.83;12.05;;;9.80;99.90;;;;;;5077599;28;20039;-90
2023/02/21 12:28:01;;;;;;;25.38;11.60;;;9.80;99.90;;;;;;5094349;28;20024;-91
2023/02/21 12:30:51;;;;;;;30.75;13.07;;;9.80;99.90;;;;;;5094069;28;20023;-91
2023/02/21 12:33:24;;;;;;;28.73;12.00;;;9.80;99.90;;;;;;5078741;28;20044;-90
2023/02/21 12:36:19;;;;;;;27.73;11.95;;;9.80;99.90;;;;;;5076191;28;20115;-91
2023/02/21 12:39:00;;;;;;;26.58;11.50;;;9.80;99.90;;;;;;5077021;28;20414;-93
2023/02/21 12:41:52;;;;;;;30.23;11.85;;;9.80;99.90;;;;;;5076984;28;20077;-92
2023/02/21 12:44:29;;;;;;;27.52;11.95;;;9.90;99.90;;;;;;5078748;28;20050;-91
2023/02/21 12:47:19;;;;;;;28.10;12.38;;;9.90;99.90;;;;;;5088732;28;20024;-93
2023/02/21 12:50:10;;;;;;;28.97;11.87;;;9.90;99.90;;;;;;5063137;28;20058;-91
2023/02/21 12:53:02;;;;;;;26.27;12.15;;;9.90;99.90;;;;;;5070766;28;20466;-91
2023/02/21 12:55:48;;;;;;;26.45;11.60;;;9.90;99.90;;;;;;5079514;28;20048;-88
2023/02/21 12:58:24;;;;;;;25.00;11.90;;;9.90;99.90;;;;;;5078088;28;20036;-88
2023/02/21 13:00:59;;;;;;;26.67;11.60;;;9.90;99.90;;;;;;5056450;28;20173;-88
2023/02/21 13:03:48;;;;;;;27.50;12.52;;;9.90;99.90;;;;;;5083587;28;20059;-89
2023/02/21 13:06:24;;;;;;;25.30;12.50;;;9.90;99.90;;;;;;5069593;28;20024;-87
2023/02/21 13:09:09;;;;;;;24.90;11.57;;;9.90;99.90;;;;;;5067692;28;20047;-87
2023/02/21 13:11:45;;;;;;;27.75;11.85;;;10.00;99.90;;;;;;5062537;28;20017;-88
2023/02/21 13:14:19;;;;;;;29.13;11.85;;;10.00;99.90;;;;;;5056122;28;20381;-88
2023/02/21 13:16:45;;;;;;;24.90;11.88;;;10.00;99.90;;;;;;5062034;28;20120;-88
2023/02/21 13:19:12;;;;;;;29.25;13.70;;;10.00;99.90;;;;;;5061866;28;20111;-87
2023/02/21 13:21:58;;;;;;;32.28;13.73;;;10.00;99.90;;;;;;5047528;28;20039;-88
2023/02/21 13:25:08;;;;;;;26.20;12.60;;;10.00;99.90;;;;;;5082876;28;20053;-88
2023/02/21 13:27:54;;;;;;;24.23;11.82;;;10.10;99.90;;;;;;5012821;28;20529;-91
2023/02/21 13:30:39;;;;;;;25.88;11.80;;;10.10;99.90;;;;;;5056633;28;20427;-88
2023/02/21 13:33:05;;;;;;;29.08;12.90;;;10.10;99.90;;;;;;5085688;28;20392;-87
2023/02/21 13:35:38;;;;;;;30.65;12.13;;;10.10;99.90;;;;;;5040015;28;20027;-87
2023/02/21 13:38:06;;;;;;;28.00;12.73;;;10.10;99.90;;;;;;5059841;28;20082;-89
2023/02/21 13:40:37;;;;;;;29.58;12.23;;;10.10;99.90;;;;;;5056057;28;20151;-89
2023/02/21 13:43:15;;;;;;;27.73;12.93;;;10.10;99.90;;;;;;5078549;28;20039;-91
2023/02/21 13:45:41;;;;;;;28.42;12.10;;;10.10;99.90;;;;;;5074096;28;20028;-88
2023/02/21 13:48:06;;;;;;;27.30;13.18;;;10.10;99.90;;;;;;5078696;28;20020;-87
2023/02/21 13:50:38;;;;;;;28.77;13.00;;;10.20;99.90;;;;;;5060594;28;20025;-88
2023/02/21 13:53:42;;;;;;;32.67;12.65;;;10.20;99.90;;;;;;5077000;28;20067;-89
2023/02/21 13:56:07;;;;;;;29.00;13.27;;;10.10;99.90;;;;;;5032159;28;20036;-90
2023/02/21 13:58:35;;;;;;;30.73;13.40;;;10.20;99.90;;;;;;5092260;28;20111;-90
2023/02/21 14:01:21;;;;;;;28.80;13.43;;;10.20;99.90;;;;;;5080781;28;20025;-90
2023/02/21 14:03:48;;;;;;;29.30;13.25;;;10.20;99.90;;;;;;5060962;28;20040;-89
2023/02/21 14:06:31;;;;;;;27.80;13.18;;;10.20;99.90;;;;;;5078064;28;20052;-89
2023/02/21 14:09:00;;;;;;;;;;;10.20;99.90;;;;;;5062383;28;20059;-90
2023/02/21 14:11:35;;;;;;;34.05;13.75;;;10.20;99.90;;;;;;5061184;28;20368;-90
2023/02/21 14:14:26;;;;;;;31.40;13.75;;;10.20;99.90;;;;;;5060818;28;20033;-89
2023/02/21 14:17:05;;;;;;;30.58;13.60;;;10.20;99.90;;;;;;5060453;28;20461;-90
2023/02/21 14:19:45;;;;;;;34.28;14.60;;;10.20;99.90;;;;;;5059712;28;20027;-90
2023/02/21 14:22:25;;;;;;;24.50;12.25;;;10.20;99.90;;;;;;5059701;28;20024;-90
2023/02/21 14:25:02;;;;;;;31.98;14.32;;;10.20;99.90;;;;;;5059580;28;20357;-91
2023/02/21 14:27:28;;;;;;;31.38;14.15;;;10.30;99.90;;;;;;5060644;28;20035;-90
2023/02/21 14:30:00;;;;;;;26.08;12.80;;;10.30;99.90;;;;;;5059712;28;20115;-89
2023/02/21 14:32:37;;;;;;;32.25;14.32;;;10.30;99.90;;;;;;5059119;28;20074;-91
2023/02/21 14:35:37;;;;;;;30.13;14.13;;;10.30;99.90;;;;;;5060154;28;20033;-91
2023/02/21 14:38:17;;;;;;;33.90;15.00;;;10.30;99.90;;;;;;5054346;28;20032;-90
2023/02/21 14:41:04;;;;;;;32.38;14.70;;;10.30;99.90;;;;;;5059749;28;20059;-90
2023/02/21 14:44:01;;;;;;;34.30;14.90;;;10.30;99.90;;;;;;5059267;28;20032;-90
2023/02/21 14:46:27;;;;;;;31.95;14.95;;;10.30;99.90;;;;;;5059658;28;20025;-91
2023/02/21 14:49:30;;;;;;;32.80;15.27;;;10.30;99.90;;;;;;5060801;28;20507;-91
2023/02/21 14:52:14;;;;;;;29.15;14.40;;;10.30;99.90;;;;;;5060113;28;20021;-91
2023/02/21 14:55:18;;;;;;;28.83;13.95;;;10.30;99.90;;;;;;5061654;28;20043;-91
2023/02/21 14:58:21;;;;;;;29.48;15.02;;;10.30;99.90;;;;;;5073927;28;20033;-89
2023/02/21 15:00:52;;;;;;;31.77;14.90;;;10.40;99.90;;;;;;5082704;28;20032;-91
2023/02/21 15:03:27;;;;;;;31.95;15.75;;;10.30;99.90;;;;;;5082402;28;20013;-91
2023/02/21 15:06:19;;;;;;;33.80;15.00;;;10.40;99.90;;;;;;5080748;28;20096;-91
2023/02/21 15:08:48;;;;;;;29.60;14.35;;;10.40;99.90;;;;;;5081007;28;20039;-90
2023/02/21 15:11:39;;;;;;;29.42;15.10;;;10.40;99.90;;;;;;5098624;28;20004;-93
2023/02/21 15:14:22;;;;;;;30.25;15.05;;;10.40;99.90;;;;;;5054438;28;20032;-90
2023/02/21 15:16:57;;;;;;;33.35;15.32;;;10.40;99.90;;;;;;5077070;28;20070;-91
2023/02/21 15:19:33;;;;;;;32.33;15.38;;;10.50;99.90;;;;;;5058822;28;20031;-90
2023/02/21 15:22:23;;;;;;;32.70;17.15;;;10.40;99.90;;;;;;5058894;28;20031;-90
2023/02/21 15:24:59;;;;;;;33.13;15.63;;;10.40;99.90;;;;;;5059156;28;20032;-89
2023/02/21 15:27:25;;;;;;;32.72;16.80;;;10.40;99.90;;;;;;5059179;28;20768;-89
2023/02/21 15:30:12;;;;;;;31.38;16.08;;;10.40;99.90;;;;;;5042599;28;20028;-90
2023/02/21 15:32:38;;;;;;;31.48;15.75;;;10.40;99.90;;;;;;5058484;28;20465;-89